Barbados Meteorological Services
Auto gathered TAF list
Powered by Apparatus software
For Flight UCL5051
Contact Number 1-(246)-535-0021/2/3/4/5/6
WEB: http://www.barbadosweather.org

**********************************************

2018/06/24 12:23
TAF TTPP 241000Z 2412/2512 11015KT 9999 SCT022
TEMPO 2414/2421 11015G25KT
TEMPO 2417/2510 5000 SHRA FEW012CB BKN018 PROB30
TEMPO 2421/2506 3000 TSRA FEW010CB SCT014 BKN038
BECMG 2501/2503 10005G15KT


**********************************************
2018/06/24 12:07
TAF TBPB 241100Z 2412/2512 09024KT 9999 SCT018 PROB30
TEMPO 2412/2424 09026G40KT 5000 SHRA BKN014 SCT045


**********************************************
2018/06/24 18:00
TAF SVMI 241600Z 2418/2518 07004KT 9999 SCT020 TX34/19Z TN24/09Z
BECMG 2418/2422 09005KT 9999 BKN016


**********************************************
2018/06/24 18:00
TAF SVMG 241600Z 2418/2518 09012KT 9999 FEW010 TX31/19Z TN25/09Z
BECMG 2418/2422 09010KT 9999 SCT016


**********************************************
2018/06/22 11:00
SPJC 221PR93 SPIM 221100 SPHI 221100Z 2212/2312 18010KT 9999 OVC012 TX21/2218Z TN16/2311Z
TEMPO 2212/2213 4000 BR DZ OVC004
BECMG 2215/2216 BKN022
FM222000 19016KT CAVOK
BECMG 2304/2306 21006KT BKN015


**********************************************
2018/06/24 12:49
TAF SKCL 241100Z 2412/2512 01004KT 9999 SCT040 SCT120
TEMPO 2412/2414 8000 VCSH SCT015TCU
BECMG 2415/2417 34014KT
TEMPO 2419/2423 8000 VCSH SCT017TCU
BECMG 2501/2503 VRB02KT TX32/2419Z TN19/2511Z


**********************************************
2018/06/24 12:42
TAF SKCC 241100Z 2412/2512 18012KT 9999 FEW020 SCT080
TEMPO 2412/2414 8000 RA SCT015 BKN070 TX34/2418Z TN23/2511Z


**********************************************
2018/06/24 12:48
TAF TAF SKBO 241100Z 2412/2512 04008KT 9999 FEW020 SCT080
TEMPO 2412/2413 8000 DZ SCT015 BKN080
BECMG 2415/2417 15012KT PROB40
TEMPO 2419/2422 8000 DZ SCT015TCU
BECMG 2502/2504 VRB02KT TX19/2418Z TN10/2511Z


**********************************************
2018/06/24 12:01
TAF SCEL 241027Z 2412/2512 VRB02KT 8000 SCT060 BKN100 TX11/2419Z TN04/2511Z
TEMPO 2412/2416 7000 -SHRA BKN050
BECMG 2416/2418 17006KT
BECMG 2422/2500 9999 FEW100
BECMG 2500/2502 15004KT 7000 NSC
BECMG 2502/2504 VRB02KT


**********************************************
2018/06/24 12:54
TAF SBPA 240900Z 2412/2512 14007KT 8000 BKN010 TX14/2417Z TN11/2508Z
BECMG 2414/2416 9999 NSW BKN020
BECMG 2500/2502 12007KT 8000 BKN010
TEMPO 2502/2512 4000 TSRA BR BKN005 FEW035CB
RMK PDW


**********************************************
2018/06/24 18:30
TAF SBGL 241430Z 2418/2524 16010KT CAVOK TN21/2508Z TX31/2517Z
BECMG 2419/2421 02005KT
BECMG 2503/2505 30005KT 7000 NSC
BECMG 2507/2510 03005KT 400 0 BR
BECMG 2510/2512 08005KT 7000 NSW
BECMG 2514/2516 14010KT CAVOK RM K PGZ


**********************************************
2018/06/24 12:51
TAF SBEG 241000Z 2412/2512 00000KT 9999 FEW015 TX31/2417Z TN24/2507Z
BECMG 2413/2415 08005KT SCT020
BECMG 2417/2419 12005KT SCT020 FEW025TCU BE CMG 2422/2424 00000KT FEW020
RMK PEN


**********************************************
2018/06/24 12:51
TAF SBBV 241000Z 2412/2512 09005KT 8000 BKN020 TX31/2418Z TN25/2507Z
BECMG 2413/2415 13010KT 9999 BKN030
BECMG 2416/2418 10005KT BKN025 FEW030T CU PROB30 2419/2421 5000 SHRA
RMK PEN


**********************************************